地図

経路データ

SID SEASON NUMBER BASIN SUBBASIN NAME ISO_TIME NATURE LAT LON WMO_WIND WMO_PRES WMO_AGENCY TRACK_TYPE DIST2LAND LANDFALL IFLAG USA_AGENCY USA_ATCF_ID USA_LAT USA_LON USA_RECORD USA_STATUS USA_WIND USA_PRES USA_SSHS USA_R34_NE USA_R34_SE USA_R34_SW USA_R34_NW USA_R50_NE USA_R50_SE USA_R50_SW USA_R50_NW USA_R64_NE USA_R64_SE USA_R64_SW USA_R64_NW USA_POCI USA_ROCI USA_RMW USA_EYE TOKYO_LAT TOKYO_LON TOKYO_GRADE TOKYO_WIND TOKYO_PRES TOKYO_R50_DIR TOKYO_R50_LONG TOKYO_R50_SHORT TOKYO_R30_DIR TOKYO_R30_LONG TOKYO_R30_SHORT TOKYO_LAND CMA_LAT CMA_LON CMA_CAT CMA_WIND CMA_PRES HKO_LAT HKO_LON HKO_CAT HKO_WIND HKO_PRES NEWDELHI_LAT NEWDELHI_LON NEWDELHI_GRADE NEWDELHI_WIND NEWDELHI_PRES NEWDELHI_CI NEWDELHI_DP NEWDELHI_POCI REUNION_LAT REUNION_LON REUNION_TYPE REUNION_WIND REUNION_PRES REUNION_TNUM REUNION_CI REUNION_RMW REUNION_R34_NE REUNION_R34_SE REUNION_R34_SW REUNION_R34_NW REUNION_R50_NE REUNION_R50_SE REUNION_R50_SW REUNION_R50_NW REUNION_R64_NE REUNION_R64_SE REUNION_R64_SW REUNION_R64_NW BOM_LAT BOM_LON BOM_TYPE BOM_WIND BOM_PRES BOM_TNUM BOM_CI BOM_RMW BOM_R34_NE BOM_R34_SE BOM_R34_SW BOM_R34_NW BOM_R50_NE BOM_R50_SE BOM_R50_SW BOM_R50_NW BOM_R64_NE BOM_R64_SE BOM_R64_SW BOM_R64_NW BOM_ROCI BOM_POCI BOM_EYE BOM_POS_METHOD BOM_PRES_METHOD NADI_LAT NADI_LON NADI_CAT NADI_WIND NADI_PRES WELLINGTON_LAT WELLINGTON_LON WELLINGTON_WIND WELLINGTON_PRES DS824_LAT DS824_LON DS824_STAGE DS824_WIND DS824_PRES TD9636_LAT TD9636_LON TD9636_STAGE TD9636_WIND TD9636_PRES TD9635_LAT TD9635_LON TD9635_WIND TD9635_PRES TD9635_ROCI NEUMANN_LAT NEUMANN_LON NEUMANN_CLASS NEUMANN_WIND NEUMANN_PRES MLC_LAT MLC_LON MLC_CLASS MLC_WIND MLC_PRES USA_GUST BOM_GUST BOM_GUST_PER REUNION_GUST REUNION_GUST_PER USA_SEAHGT USA_SEARAD_NE USA_SEARAD_SE USA_SEARAD_SW USA_SEARAD_NW STORM_SPEED STORM_DIR
1947263N19282 1947 67 NA CS NOT_NAMED 1947-09-20 06:00:00 TS 19.2000 -77.7000 35 hurdat_atl main 67 59 O_____________ hurdat_atl AL061947 19.2000 -77.7000 TS 35 0 10 288
1947263N19282 1947 67 NA CS NOT_NAMED 1947-09-20 09:00:00 TS 19.3604 -78.2272 main 68 68 P_____________ AL061947 19.3604 -78.2272 TS 35 0 10 288
1947263N19282 1947 67 NA CS NOT_NAMED 1947-09-20 12:00:00 TS 19.5000 -78.7000 35 hurdat_atl main 109 109 O_____________ hurdat_atl AL061947 19.5000 -78.7000 TS 35 0 8 287
1947263N19282 1947 67 NA CS NOT_NAMED 1947-09-20 15:00:00 TS 19.6073 -79.0801 main 148 148 P_____________ AL061947 19.6073 -79.0801 TS 35 0 7 287
1947263N19282 1947 67 NA CS NOT_NAMED 1947-09-20 18:00:00 TS 19.7000 -79.4000 35 hurdat_atl main 173 173 O_____________ hurdat_atl AL061947 19.7000 -79.4000 TS 35 0 6 287
1947263N19282 1947 67 NA CS NOT_NAMED 1947-09-20 21:00:00 TS 19.7924 -79.7076 main 183 183 P_____________ AL061947 19.7924 -79.7076 TS 35 0 6 289
1947263N19282 1947 67 NA CS NOT_NAMED 1947-09-21 00:00:00 TS 19.9000 -80.0000 35 hurdat_atl main 197 189 O_____________ hurdat_atl AL061947 19.9000 -80.0000 TS 35 0 6 294
1947263N19282 1947 67 NA CS NOT_NAMED 1947-09-21 03:00:00 TS 20.0425 -80.3000 main 192 175 P_____________ AL061947 20.0425 -80.3000 TS 37 0 6 298
1947263N19282 1947 67 NA CS NOT_NAMED 1947-09-21 06:00:00 TS 20.2000 -80.6000 40 hurdat_atl main 178 172 O_____________ hurdat_atl AL061947 20.2000 -80.6000 TS 40 0 6 297
1947263N19282 1947 67 NA CS NOT_NAMED 1947-09-21 09:00:00 TS 20.3274 -80.8853 main 182 167 P_____________ AL061947 20.3274 -80.8853 TS 40 0 6 298
1947263N19282 1947 67 NA CS NOT_NAMED 1947-09-21 12:00:00 TS 20.5000 -81.2000 40 hurdat_atl main 167 137 O_____________ hurdat_atl AL061947 20.5000 -81.2000 TS 40 0 8 304
1947263N19282 1947 67 NA CS NOT_NAMED 1947-09-21 15:00:00 TS 20.7650 -81.5768 main 129 76 P_____________ AL061947 20.7650 -81.5768 TS 42 0 10 309
1947263N19282 1947 67 NA CS NOT_NAMED 1947-09-21 18:00:00 TS 21.1000 -82.0000 45 hurdat_atl main 76 24 O_____________ hurdat_atl AL061947 21.1000 -82.0000 TS 45 0 11 309
1947263N19282 1947 67 NA CS NOT_NAMED 1947-09-21 21:00:00 TS 21.4422 -82.4683 main 22 0 P_____________ AL061947 21.4422 -82.4683 TS 45 0 11 312
1947263N19282 1947 67 NA CS NOT_NAMED 1947-09-21 22:00:00 TS 21.6000 -82.6000 45 hurdat_atl main 0 0 O_____________ hurdat_atl AL061947 21.6000 -82.6000 L TS 45 0 13 331
1947263N19282 1947 67 NA CS NOT_NAMED 1947-09-22 00:00:00 TS 22.0000 -82.8000 45 hurdat_atl main 22 0 O_____________ hurdat_atl AL061947 22.0000 -82.8000 TS 45 0 12 333
1947263N19282 1947 67 NA CS NOT_NAMED 1947-09-22 03:00:00 TS 22.5000 -83.1000 45 hurdat_atl main 0 0 O_____________ hurdat_atl AL061947 22.5000 -83.1000 L TS 45 0 11 335
1947263N19282 1947 67 NA GM NOT_NAMED 1947-09-22 06:00:00 TS 23.0000 -83.3000 45 hurdat_atl main 11 11 O_____________ hurdat_atl AL061947 23.0000 -83.3000 TS 45 0 10 344
1947263N19282 1947 67 NA GM NOT_NAMED 1947-09-22 09:00:00 TS 23.4136 -83.3877 main 55 55 P_____________ AL061947 23.4136 -83.3877 TS 45 0 8 354
1947263N19282 1947 67 NA GM NOT_NAMED 1947-09-22 12:00:00 TS 23.8000 -83.4000 45 hurdat_atl main 100 100 O_____________ hurdat_atl AL061947 23.8000 -83.4000 TS 45 0 8 0
1947263N19282 1947 67 NA GM NOT_NAMED 1947-09-22 15:00:00 TS 24.2350 -83.4076 main 145 145 P_____________ AL061947 24.2350 -83.4076 TS 47 0 9 0
1947263N19282 1947 67 NA GM NOT_NAMED 1947-09-22 18:00:00 TS 24.7000 -83.4000 50 993 hurdat_atl main 199 187 O_____________ hurdat_atl AL061947 24.7000 -83.4000 TS 50 993 0 10 1
1947263N19282 1947 67 NA GM NOT_NAMED 1947-09-22 21:00:00 TS 25.1925 -83.4000 main 187 164 P_____________ AL061947 25.1925 -83.4000 TS 50 993 0 10 1
1947263N19282 1947 67 NA GM NOT_NAMED 1947-09-23 00:00:00 TS 25.7000 -83.4000 50 994 hurdat_atl main 164 128 O_____________ hurdat_atl AL061947 25.7000 -83.4000 TS 50 994 0 10 0
1947263N19282 1947 67 NA GM NOT_NAMED 1947-09-23 03:00:00 TS 26.2075 -83.4148 main 128 103 P_____________ AL061947 26.2075 -83.4148 TS 50 0 10 1
1947263N19282 1947 67 NA GM NOT_NAMED 1947-09-23 06:00:00 TS 26.7000 -83.4000 50 hurdat_atl main 103 72 O_____________ hurdat_atl AL061947 26.7000 -83.4000 TS 50 0 10 5
1947263N19282 1947 67 NA GM NOT_NAMED 1947-09-23 09:00:00 TS 27.1575 -83.3225 main 70 44 P_____________ AL061947 27.1575 -83.3225 TS 52 0 9 11
1947263N19282 1947 67 NA GM NOT_NAMED 1947-09-23 12:00:00 TS 27.6000 -83.2000 55 hurdat_atl main 44 19 O_____________ hurdat_atl AL061947 27.6000 -83.2000 TS 55 0 10 14
1947263N19282 1947 67 NA GM NOT_NAMED 1947-09-23 15:00:00 TS 28.0774 -83.0572 main 29 19 P_____________ AL061947 28.0774 -83.0572 TS 55 0 9 16
1947263N19282 1947 67 NA GM NOT_NAMED 1947-09-23 18:00:00 TS 28.5000 -82.9000 55 hurdat_atl main 29 19 O_____________ hurdat_atl AL061947 28.5000 -82.9000 TS 55 0 7 22
1947263N19282 1947 67 NA GM NOT_NAMED 1947-09-23 21:00:00 TS 28.7451 -82.7499 main 9 9 P_____________ AL061947 28.7451 -82.7499 TS 55 0 7 24
1947263N19282 1947 67 NA GM NOT_NAMED 1947-09-23 22:00:00 TS 28.9000 -82.7000 55 hurdat_atl main 9 0 O_____________ hurdat_atl AL061947 28.9000 -82.7000 L TS 55 0 13 11
1947263N19282 1947 67 NA NA NOT_NAMED 1947-09-24 00:00:00 ET 29.4000 -82.6000 50 987 hurdat_atl main 0 0 O_____________ hurdat_atl AL061947 29.4000 -82.6000 EX 50 987 -4 14 13
1947263N19282 1947 67 NA NA NOT_NAMED 1947-09-24 03:00:00 ET 30.0473 -82.3982 main 0 0 P_____________ AL061947 30.0473 -82.3982 EX 47 -4 14 18
1947263N19282 1947 67 NA NA NOT_NAMED 1947-09-24 06:00:00 ET 30.7000 -82.1000 45 hurdat_atl main 0 0 O_____________ hurdat_atl AL061947 30.7000 -82.1000 EX 45 -4 16 22
1947263N19282 1947 67 NA NA NOT_NAMED 1947-09-24 09:00:00 ET 31.5575 -81.6882 main 0 0 P_____________ AL061947 31.5575 -81.6882 EX 42 -4 19 24
1947263N19282 1947 67 NA NA NOT_NAMED 1947-09-24 12:00:00 ET 32.4000 -81.2000 40 hurdat_atl main 0 0 O_____________ hurdat_atl AL061947 32.4000 -81.2000 EX 40 -4 17 28
1947263N19282 1947 67 NA NA NOT_NAMED 1947-09-24 15:00:00 ET 33.0519 -80.7361 main 0 0 P_____________ AL061947 33.0519 -80.7361 EX 40 -4 15 35
1947263N19282 1947 67 NA NA NOT_NAMED 1947-09-24 18:00:00 ET 33.6000 -80.2000 40 hurdat_atl main 0 0 O_____________ hurdat_atl AL061947 33.6000 -80.2000 EX 40 -4 14 43
1947263N19282 1947 67 NA NA NOT_NAMED 1947-09-24 21:00:00 ET 34.1143 -79.5662 main 0 0 P_____________ AL061947 34.1143 -79.5662 EX 37 -4 15 49
1947263N19282 1947 67 NA NA NOT_NAMED 1947-09-25 00:00:00 ET 34.6000 -78.8000 35 hurdat_atl main 0 0 O_____________ hurdat_atl AL061947 34.6000 -78.8000 EX 35 -4 17 54
1947263N19282 1947 67 NA NA NOT_NAMED 1947-09-25 03:00:00 ET 35.0997 -77.9017 main 0 0 P_____________ AL061947 35.0997 -77.9017 EX 35 -4 18 57
1947263N19282 1947 67 NA NA NOT_NAMED 1947-09-25 06:00:00 ET 35.6000 -76.9000 35 hurdat_atl main 0 0 O_____________ hurdat_atl AL061947 35.6000 -76.9000 EX 35 -4 19 58
1947263N19282 1947 67 NA NA NOT_NAMED 1947-09-25 09:00:00 ET 36.1211 -75.8944 main 8 0 P_____________ AL061947 36.1211 -75.8944 EX 37 -4 20 59
1947263N19282 1947 67 NA NA NOT_NAMED 1947-09-25 12:00:00 ET 36.6000 -74.8000 40 hurdat_atl main 91 91 O_____________ hurdat_atl AL061947 36.6000 -74.8000 EX 40 -4 20 64
1947263N19282 1947 67 NA NA NOT_NAMED 1947-09-25 15:00:00 ET 36.9678 -73.6889 main 181 181 P_____________ AL061947 36.9678 -73.6889 EX 37 -4 21 71
1947263N19282 1947 67 NA NA NOT_NAMED 1947-09-25 18:00:00 ET 37.3000 -72.3000 35 hurdat_atl main 269 269 O_____________ hurdat_atl AL061947 37.3000 -72.3000 EX 35 -4 27 75
1947263N19282 1947 67 NA NA NOT_NAMED 1947-09-25 21:00:00 ET 37.6532 -70.4458 main 392 392 P_____________ AL061947 37.6532 -70.4458 EX 35 -4 32 78
1947263N19282 1947 67 NA NA NOT_NAMED 1947-09-26 00:00:00 ET 38.0000 -68.3000 35 hurdat_atl main 436 O_____________ hurdat_atl AL061947 38.0000 -68.3000 EX 35 -4 34 78

IBTrACS Databaseについて

本データベースは、米国NOAAが公開する1842年以降の世界の熱帯低気圧のベストトラックデータアーカイブInternational Best Track Archive for Climate Stewardship (IBTrACS)を、ウェブで閲覧しやすい形式に変換したものです。

最終更新日:2021-11-26